createdAt,value
2019-01-23T00:00:31.134Z,-1.50
2019-01-23T00:02:59.239Z,-1.60
2019-01-23T00:05:27.569Z,-1.60
2019-01-23T00:07:55.700Z,-1.60
2019-01-23T00:10:23.968Z,-1.60
2019-01-23T00:12:52.122Z,-1.50
2019-01-23T00:15:20.335Z,-1.60
2019-01-23T00:17:48.574Z,-1.50
2019-01-23T00:20:16.730Z,-1.50
2019-01-23T00:22:44.765Z,-1.50
2019-01-23T00:25:12.923Z,-1.50
2019-01-23T00:27:41.317Z,-1.50
2019-01-23T00:30:10.220Z,-1.60
2019-01-23T00:32:38.635Z,-1.60
2019-01-23T00:35:07.198Z,-1.60
2019-01-23T00:37:35.612Z,-1.60
2019-01-23T00:40:05.137Z,-1.60
2019-01-23T00:42:33.197Z,-1.60
2019-01-23T00:45:01.349Z,-1.60
2019-01-23T00:47:29.465Z,-1.60
2019-01-23T00:49:57.687Z,-1.60
2019-01-23T00:52:25.770Z,-1.60
2019-01-23T00:54:53.935Z,-1.60
2019-01-23T00:57:22.118Z,-1.60
2019-01-23T00:59:50.310Z,-1.70
2019-01-23T01:02:18.369Z,-1.70
2019-01-23T01:04:46.531Z,-1.70
2019-01-23T01:07:14.749Z,-1.70
2019-01-23T01:09:42.793Z,-1.70
2019-01-23T01:12:11.092Z,-1.70
2019-01-23T01:14:39.137Z,-1.70
2019-01-23T01:17:07.297Z,-1.70
2019-01-23T01:19:35.625Z,-1.70
2019-01-23T01:22:04.161Z,-1.60
2019-01-23T01:24:32.234Z,-1.70
2019-01-23T01:27:00.342Z,-1.70
2019-01-23T01:29:28.426Z,-1.70
2019-01-23T01:31:56.634Z,-1.80
2019-01-23T01:34:24.820Z,-1.80
2019-01-23T01:36:53.008Z,-1.80
2019-01-23T01:39:21.056Z,-1.80
2019-01-23T01:41:49.129Z,-1.70
2019-01-23T01:44:17.286Z,-1.80
2019-01-23T01:46:45.477Z,-1.90
2019-01-23T01:49:13.628Z,-1.80
2019-01-23T01:51:41.700Z,-1.90
2019-01-23T01:54:09.759Z,-2.00
2019-01-23T01:56:38.801Z,-2.00
2019-01-23T01:59:06.948Z,-2.00
2019-01-23T02:01:35.130Z,-2.00
2019-01-23T02:04:03.449Z,-2.00
2019-01-23T02:06:31.548Z,-2.00
2019-01-23T02:08:59.731Z,-2.10
2019-01-23T02:11:27.869Z,-2.10
2019-01-23T02:13:55.996Z,-2.00
2019-01-23T02:16:24.199Z,-2.00
2019-01-23T02:18:52.209Z,-2.00
2019-01-23T02:21:20.365Z,-2.00
2019-01-23T02:23:48.495Z,-2.00
2019-01-23T02:26:16.554Z,-2.00
2019-01-23T02:28:44.642Z,-2.00
2019-01-23T02:31:12.684Z,-2.00
2019-01-23T02:33:41.030Z,-2.10
2019-01-23T02:36:09.108Z,-2.10
2019-01-23T02:38:37.664Z,-2.10
2019-01-23T02:41:05.765Z,-2.10
2019-01-23T02:43:33.936Z,-2.20
2019-01-23T02:46:02.087Z,-2.30
2019-01-23T02:48:30.114Z,-2.30
2019-01-23T02:50:58.346Z,-2.30
2019-01-23T02:53:26.417Z,-2.30
2019-01-23T02:55:54.574Z,-2.40
2019-01-23T02:58:22.815Z,-2.40
2019-01-23T03:00:51.075Z,-2.30
2019-01-23T03:03:20.357Z,-2.30
2019-01-23T03:05:48.539Z,-2.30
2019-01-23T03:08:16.823Z,-2.30
2019-01-23T03:10:44.905Z,-2.30
2019-01-23T03:13:13.197Z,-2.30
2019-01-23T03:15:41.399Z,-2.30
2019-01-23T03:18:09.515Z,-2.40
2019-01-23T03:20:37.655Z,-2.40
2019-01-23T03:23:05.749Z,-2.40
2019-01-23T03:25:34.177Z,-2.50
2019-01-23T03:28:02.358Z,-2.60
2019-01-23T03:30:30.615Z,-2.60
2019-01-23T03:32:58.929Z,-2.60
2019-01-23T03:35:27.253Z,-2.60
2019-01-23T03:37:55.423Z,-2.60
2019-01-23T03:40:23.631Z,-2.60
2019-01-23T03:42:52.009Z,-2.60
2019-01-23T03:45:20.142Z,-2.60
2019-01-23T03:47:48.598Z,-2.60
2019-01-23T03:50:19.070Z,-2.60
2019-01-23T03:52:47.197Z,-2.60
2019-01-23T03:55:16.147Z,-2.70
2019-01-23T03:57:44.303Z,-2.70
2019-01-23T04:00:22.321Z,-2.80
2019-01-23T04:02:52.493Z,-2.80
2019-01-23T04:05:20.972Z,-2.90
2019-01-23T04:07:49.301Z,-2.90
2019-01-23T04:10:17.630Z,-2.90
2019-01-23T04:12:45.925Z,-2.90
2019-01-23T04:15:15.403Z,-3.00
2019-01-23T04:17:43.615Z,-3.10
2019-01-23T04:20:16.919Z,-3.10
2019-01-23T04:22:45.049Z,-3.10
2019-01-23T04:25:14.038Z,-3.00
2019-01-23T04:27:42.102Z,-3.10
2019-01-23T04:30:15.179Z,-3.10
2019-01-23T04:32:43.300Z,-3.10
2019-01-23T04:35:11.797Z,-3.10
2019-01-23T04:37:39.958Z,-3.10
2019-01-23T04:40:09.138Z,-3.10
2019-01-23T04:42:37.170Z,-3.10
2019-01-23T04:45:07.861Z,-3.20
2019-01-23T04:47:35.949Z,-3.20
2019-01-23T04:50:06.018Z,-3.20
2019-01-23T04:52:56.446Z,-3.20
2019-01-23T04:55:24.729Z,-3.20
2019-01-23T04:57:52.838Z,-3.20
2019-01-23T05:00:23.221Z,-3.20
2019-01-23T05:02:51.602Z,-3.20
2019-01-23T05:05:19.739Z,-3.30
2019-01-23T05:07:48.015Z,-3.30
2019-01-23T05:10:16.153Z,-3.30
2019-01-23T05:12:44.184Z,-3.40
2019-01-23T05:15:12.387Z,-3.40
2019-01-23T05:17:40.479Z,-3.40
2019-01-23T05:20:09.983Z,-3.40
2019-01-23T05:22:38.199Z,-3.40
2019-01-23T05:25:06.829Z,-3.40
2019-01-23T05:27:34.985Z,-3.30
2019-01-23T05:30:04.776Z,-3.30
2019-01-23T05:32:32.949Z,-3.30
2019-01-23T05:35:00.942Z,-3.30
2019-01-23T05:37:29.062Z,-3.40
2019-01-23T05:39:57.139Z,-3.40
2019-01-23T05:42:25.218Z,-3.30
2019-01-23T05:44:53.447Z,-3.30
2019-01-23T05:47:21.516Z,-3.20
2019-01-23T05:49:49.754Z,-3.20
2019-01-23T05:52:17.850Z,-3.30
2019-01-23T05:54:45.984Z,-3.40
2019-01-23T05:57:14.053Z,-3.30
2019-01-23T05:59:42.074Z,-3.30
2019-01-23T06:02:10.208Z,-3.30
2019-01-23T06:04:38.350Z,-3.30
2019-01-23T06:07:06.612Z,-3.40
2019-01-23T06:09:34.734Z,-3.40
2019-01-23T06:12:04.313Z,-3.40
2019-01-23T06:14:33.283Z,-3.50
2019-01-23T06:17:07.503Z,-3.60
2019-01-23T06:19:39.623Z,-3.60
2019-01-23T06:22:09.173Z,-3.70
2019-01-23T06:24:38.831Z,-3.70
2019-01-23T06:27:08.486Z,-3.80
2019-01-23T06:29:38.552Z,-3.90
2019-01-23T06:32:06.796Z,-3.90
2019-01-23T06:34:35.111Z,-3.90
2019-01-23T06:37:03.402Z,-3.80
2019-01-23T06:39:31.487Z,-3.70
2019-01-23T06:41:59.827Z,-3.60
2019-01-23T06:44:27.938Z,-3.50
2019-01-23T06:46:56.191Z,-3.40
2019-01-23T06:49:24.407Z,-3.40
2019-01-23T06:51:52.570Z,-3.30
2019-01-23T06:54:20.760Z,-3.30
2019-01-23T06:56:48.887Z,-3.30
2019-01-23T06:59:17.126Z,-3.20
2019-01-23T07:01:45.462Z,-3.20
2019-01-23T07:04:13.530Z,-3.10
2019-01-23T07:06:41.545Z,-3.00
2019-01-23T07:09:09.785Z,-3.00
2019-01-23T07:11:37.895Z,-3.00
2019-01-23T07:14:05.941Z,-3.00
2019-01-23T07:16:34.203Z,-3.00
2019-01-23T07:19:02.353Z,-3.10
2019-01-23T07:21:30.589Z,-3.20
2019-01-23T07:23:58.733Z,-3.30
2019-01-23T07:26:26.833Z,-3.30
2019-01-23T07:28:56.000Z,-3.40
2019-01-23T07:31:24.157Z,-3.40
2019-01-23T07:33:52.683Z,-3.30
2019-01-23T07:36:20.856Z,-3.30
2019-01-23T07:38:48.916Z,-3.40
2019-01-23T07:41:17.103Z,-3.20
2019-01-23T07:43:45.292Z,-2.90
2019-01-23T07:46:13.485Z,-2.80
2019-01-23T07:48:41.722Z,-2.60
2019-01-23T07:51:09.994Z,-2.50
2019-01-23T07:53:38.027Z,-2.30
2019-01-23T07:56:06.183Z,-2.20
2019-01-23T07:58:34.267Z,-2.20
2019-01-23T08:01:02.347Z,-2.10
2019-01-23T08:03:30.416Z,-2.10
2019-01-23T08:05:58.441Z,-2.00
2019-01-23T08:08:26.558Z,-2.00
2019-01-23T08:10:54.561Z,-2.00
2019-01-23T08:13:22.653Z,-1.80
2019-01-23T08:15:50.876Z,-1.70
2019-01-23T08:18:19.081Z,-1.70
2019-01-23T08:20:47.285Z,-1.70
2019-01-23T08:23:15.438Z,-1.80
2019-01-23T08:25:43.615Z,-1.90
2019-01-23T08:28:12.766Z,-1.90
2019-01-23T08:30:41.021Z,-1.90
2019-01-23T08:33:09.119Z,-1.80
2019-01-23T08:35:37.438Z,-1.70
2019-01-23T08:38:05.496Z,-1.60
2019-01-23T08:40:33.595Z,-1.60
2019-01-23T08:43:02.441Z,-1.90
2019-01-23T08:45:30.963Z,-2.10
2019-01-23T08:47:59.139Z,-2.50
2019-01-23T08:50:37.491Z,-2.90
2019-01-23T08:53:06.328Z,-3.20
2019-01-23T08:55:34.512Z,-3.30
2019-01-23T08:58:02.924Z,-3.40
2019-01-23T09:00:31.000Z,-3.60
2019-01-23T09:02:59.280Z,-3.60
2019-01-23T09:05:27.787Z,-3.60
2019-01-23T09:07:55.936Z,-3.50
2019-01-23T09:10:25.483Z,-3.50
2019-01-23T09:12:53.591Z,-3.60
2019-01-23T09:15:21.647Z,-3.60
2019-01-23T09:17:50.032Z,-2.10
2019-01-23T09:20:18.997Z,-1.30
2019-01-23T09:22:48.297Z,-1.40
2019-01-23T09:25:19.417Z,-1.80
2019-01-23T09:27:47.555Z,-2.30
2019-01-23T09:30:44.244Z,-2.60
2019-01-23T09:33:41.071Z,-2.90
2019-01-23T09:36:58.083Z,-3.20
2019-01-23T09:40:18.376Z,-3.30
2019-01-23T09:43:56.286Z,-3.40
2019-01-23T09:47:07.106Z,-3.40
2019-01-23T09:50:54.466Z,-3.40
2019-01-23T09:53:54.833Z,-3.50
2019-01-23T09:56:23.192Z,-3.40
2019-01-23T09:58:51.446Z,-3.30
2019-01-23T10:01:19.874Z,-3.30
2019-01-23T10:03:48.000Z,-3.10
2019-01-23T10:06:16.100Z,-3.10
2019-01-23T10:08:44.375Z,-3.10
2019-01-23T10:11:12.483Z,-3.10
2019-01-23T10:13:40.795Z,-3.20
2019-01-23T10:16:15.984Z,-3.30
2019-01-23T10:18:44.034Z,-3.40
2019-01-23T10:21:12.491Z,-3.30
2019-01-23T10:23:40.792Z,-3.30
2019-01-23T10:26:08.964Z,-3.30
2019-01-23T10:28:37.451Z,-3.30
2019-01-23T10:31:06.679Z,-3.30
2019-01-23T10:33:35.415Z,-3.30
2019-01-23T10:36:03.992Z,-3.30
2019-01-23T10:38:32.101Z,-3.30
2019-01-23T10:41:00.130Z,-3.30
2019-01-23T10:43:28.171Z,-3.30
2019-01-23T10:45:56.246Z,-3.30
2019-01-23T10:48:24.392Z,-3.20
2019-01-23T10:50:52.592Z,-3.10
2019-01-23T10:53:20.650Z,-3.00
2019-01-23T10:55:48.756Z,-3.00
2019-01-23T10:58:16.815Z,-2.90
2019-01-23T11:00:44.961Z,-2.80
2019-01-23T11:03:13.323Z,-2.80
2019-01-23T11:05:41.539Z,-2.70
2019-01-23T11:08:09.540Z,-2.80
2019-01-23T11:10:37.899Z,-2.80
2019-01-23T11:13:06.152Z,-2.80
2019-01-23T11:15:34.299Z,-2.70
2019-01-23T11:18:02.568Z,-2.80
2019-01-23T11:20:30.596Z,-3.00
2019-01-23T11:22:58.672Z,-3.10
2019-01-23T11:25:26.721Z,-3.10
2019-01-23T11:27:54.949Z,-3.10
2019-01-23T11:30:25.596Z,-3.10
2019-01-23T11:32:53.930Z,-3.00
2019-01-23T11:35:22.510Z,-3.00
2019-01-23T11:37:51.103Z,-3.00
2019-01-23T11:40:25.738Z,-3.00
2019-01-23T11:42:53.937Z,-3.00
2019-01-23T11:45:22.009Z,-3.10
2019-01-23T11:47:50.399Z,-3.10
2019-01-23T11:50:22.856Z,-3.00
2019-01-23T11:52:49.245Z,-2.90
2019-01-23T11:55:17.362Z,-2.80
2019-01-23T11:57:45.541Z,-2.70
2019-01-23T12:00:18.105Z,-2.60
2019-01-23T12:02:46.273Z,-2.90
2019-01-23T12:05:17.680Z,-3.00
2019-01-23T12:07:45.975Z,-3.00
2019-01-23T12:10:20.468Z,-2.80
2019-01-23T12:12:48.855Z,-2.70
2019-01-23T12:15:20.738Z,-2.70
2019-01-23T12:17:49.103Z,-2.70
2019-01-23T12:20:17.604Z,-2.70
2019-01-23T12:22:45.666Z,-2.70
2019-01-23T12:25:15.157Z,-2.80
2019-01-23T12:27:44.913Z,-2.80
2019-01-23T12:30:18.254Z,-2.80
2019-01-23T12:32:46.282Z,-2.80
2019-01-23T12:35:14.397Z,-2.70
2019-01-23T12:37:42.455Z,-2.70
2019-01-23T12:40:12.769Z,-2.60
2019-01-23T12:42:40.901Z,-2.60
2019-01-23T12:45:15.447Z,-2.60
2019-01-23T12:47:43.529Z,-2.60
2019-01-23T12:50:19.977Z,-2.50
2019-01-23T12:52:48.008Z,-2.50
2019-01-23T12:55:16.226Z,-2.40
2019-01-23T12:57:47.055Z,-2.50
2019-01-23T13:00:24.422Z,-2.70
2019-01-23T13:02:52.770Z,-2.70
2019-01-23T13:05:22.672Z,-2.70
2019-01-23T13:07:51.248Z,-2.60
2019-01-23T13:10:20.613Z,-2.50
2019-01-23T13:12:49.083Z,-2.50
2019-01-23T13:15:23.205Z,-2.40
2019-01-23T13:17:52.698Z,-2.40
2019-01-23T13:20:22.093Z,-2.40
2019-01-23T13:22:50.988Z,-2.60
2019-01-23T13:25:23.034Z,-2.80
2019-01-23T13:27:52.057Z,-2.90
2019-01-23T13:30:23.284Z,-2.90
2019-01-23T13:32:51.650Z,-2.90
2019-01-23T13:35:27.018Z,-2.90
2019-01-23T13:37:55.293Z,-2.90
2019-01-23T13:40:31.223Z,-2.70
2019-01-23T13:42:59.498Z,-2.70
2019-01-23T13:45:27.654Z,-2.70
2019-01-23T13:47:56.009Z,-2.60
2019-01-23T13:50:24.132Z,-2.70
2019-01-23T13:52:52.224Z,-2.60
2019-01-23T13:55:21.183Z,-2.60
2019-01-23T13:57:49.206Z,-2.60
2019-01-23T14:00:24.822Z,-2.70
2019-01-23T14:02:53.000Z,-2.60
2019-01-23T14:05:21.243Z,-2.60
2019-01-23T14:07:49.333Z,-2.70
2019-01-23T14:10:17.721Z,-2.70
2019-01-23T14:12:45.792Z,-2.60
2019-01-23T14:15:24.245Z,-2.50
2019-01-23T14:17:52.429Z,-2.40
2019-01-23T14:20:20.493Z,-2.30
2019-01-23T14:22:49.008Z,-2.30
2019-01-23T14:25:17.287Z,-2.40
2019-01-23T14:27:47.117Z,-2.40
2019-01-23T14:30:25.972Z,-2.50
2019-01-23T14:32:54.114Z,-2.60
2019-01-23T14:35:22.236Z,-2.50
2019-01-23T14:37:50.465Z,-2.50
2019-01-23T14:40:18.513Z,-2.50
2019-01-23T14:42:46.592Z,-2.40
2019-01-23T14:45:15.564Z,-2.40
2019-01-23T14:47:44.323Z,-2.30
2019-01-23T14:50:13.109Z,-2.30
2019-01-23T14:52:42.602Z,-2.40
2019-01-23T14:55:11.360Z,-2.40
2019-01-23T14:57:39.839Z,-2.50
2019-01-23T15:00:15.709Z,-2.50
2019-01-23T15:02:44.283Z,-2.60
2019-01-23T15:05:14.794Z,-2.60
2019-01-23T15:07:42.925Z,-2.70
2019-01-23T15:10:24.958Z,-2.70
2019-01-23T15:12:53.817Z,-2.60
2019-01-23T15:15:22.482Z,-2.60
2019-01-23T15:17:50.864Z,-2.50
2019-01-23T15:20:28.344Z,-2.50
2019-01-23T15:22:56.366Z,-2.60
2019-01-23T15:25:24.603Z,-2.60
2019-01-23T15:27:52.646Z,-2.50
2019-01-23T15:30:21.479Z,-2.60
2019-01-23T15:32:49.951Z,-2.60
2019-01-23T15:35:20.912Z,-2.60
2019-01-23T15:37:49.059Z,-2.60
2019-01-23T15:40:24.176Z,-2.70
2019-01-23T15:42:52.281Z,-2.70
2019-01-23T15:45:20.384Z,-2.80
2019-01-23T15:47:48.660Z,-2.90
2019-01-23T15:50:21.951Z,-3.00
2019-01-23T15:52:50.440Z,-3.00
2019-01-23T15:55:21.951Z,-3.10
2019-01-23T15:57:50.219Z,-3.20
2019-01-23T16:00:30.415Z,-3.10
2019-01-23T16:02:58.970Z,-3.10
2019-01-23T16:05:28.472Z,-3.10
2019-01-23T16:07:56.784Z,-3.10
2019-01-23T16:10:27.137Z,-3.10
2019-01-23T16:12:55.633Z,-3.10
2019-01-23T16:15:25.766Z,-3.20
2019-01-23T16:17:53.942Z,-3.20
2019-01-23T16:20:22.470Z,-3.20
2019-01-23T16:22:52.691Z,-3.20
2019-01-23T16:25:21.029Z,-3.20
2019-01-23T16:27:49.468Z,-3.20
2019-01-23T16:30:36.757Z,-3.10
2019-01-23T16:33:06.994Z,-3.10
2019-01-23T16:35:38.779Z,-3.00
2019-01-23T16:38:08.414Z,-2.90
2019-01-23T16:40:36.663Z,-3.00
2019-01-23T16:43:04.743Z,-3.10
2019-01-23T16:45:32.886Z,-3.10
2019-01-23T16:48:01.034Z,-3.10
2019-01-23T16:50:29.316Z,-3.10
2019-01-23T16:52:57.469Z,-3.20
2019-01-23T16:55:25.959Z,-3.30
2019-01-23T16:57:54.656Z,-3.30
2019-01-23T17:00:24.636Z,-3.30
2019-01-23T17:02:54.361Z,-3.30
2019-01-23T17:05:26.444Z,-3.30
2019-01-23T17:07:56.952Z,-3.20
2019-01-23T17:10:25.428Z,-3.20
2019-01-23T17:12:53.788Z,-3.10
2019-01-23T17:15:22.105Z,-3.10
2019-01-23T17:17:50.639Z,-3.30
2019-01-23T17:20:23.352Z,-3.20
2019-01-23T17:22:51.760Z,-3.30
2019-01-23T17:25:20.076Z,-3.20
2019-01-23T17:27:48.762Z,-3.30
2019-01-23T17:30:17.710Z,-3.30
2019-01-23T17:32:45.977Z,-3.30
2019-01-23T17:35:15.263Z,-3.20
2019-01-23T17:37:47.499Z,-3.20
2019-01-23T17:40:18.454Z,-3.30
2019-01-23T17:42:48.026Z,-3.20
2019-01-23T17:45:20.871Z,-3.20
2019-01-23T17:47:49.095Z,-3.20
2019-01-23T17:50:19.386Z,-3.20
2019-01-23T17:52:47.663Z,-3.10
2019-01-23T17:55:20.714Z,-3.10
2019-01-23T17:57:48.825Z,-3.10
2019-01-23T18:00:22.283Z,-3.10
2019-01-23T18:02:52.778Z,-3.10
2019-01-23T18:05:20.498Z,-3.10
2019-01-23T18:07:48.795Z,-3.10
2019-01-23T18:10:17.108Z,-3.10
2019-01-23T18:12:45.861Z,-3.20
2019-01-23T18:15:16.960Z,-3.30
2019-01-23T18:17:45.608Z,-3.30
2019-01-23T18:20:17.970Z,-3.30
2019-01-23T18:22:46.113Z,-3.30
2019-01-23T18:25:15.371Z,-3.30
2019-01-23T18:27:44.228Z,-3.30
2019-01-23T18:30:50.814Z,-3.30
2019-01-23T18:33:26.157Z,-3.30
2019-01-23T18:36:41.599Z,-2.80
2019-01-23T18:40:03.177Z,-3.10
2019-01-23T18:43:35.032Z,-3.30
2019-01-23T18:47:01.541Z,-3.50
2019-01-23T18:50:45.689Z,-3.50
2019-01-23T18:53:15.282Z,-3.40
2019-01-23T18:55:43.444Z,-3.50
2019-01-23T18:58:11.525Z,-3.50
2019-01-23T19:00:40.163Z,-3.50
2019-01-23T19:03:08.418Z,-3.50
2019-01-23T19:05:36.712Z,-3.50
2019-01-23T19:08:07.647Z,-3.50
2019-01-23T19:10:35.712Z,-3.50
2019-01-23T19:13:04.794Z,-3.40
2019-01-23T19:15:33.504Z,-3.40
2019-01-23T19:18:01.784Z,-3.40
2019-01-23T19:20:30.758Z,-3.40
2019-01-23T19:22:58.839Z,-3.40
2019-01-23T19:25:27.058Z,-3.50
2019-01-23T19:27:55.152Z,-3.60
2019-01-23T19:30:23.422Z,-3.60
2019-01-23T19:32:51.500Z,-3.60
2019-01-23T19:35:19.553Z,-3.60
2019-01-23T19:37:47.622Z,-3.60
2019-01-23T19:40:16.472Z,-3.60
2019-01-23T19:42:44.683Z,-3.70
2019-01-23T19:45:17.538Z,-3.70
2019-01-23T19:47:48.818Z,-3.70
2019-01-23T19:50:16.947Z,-3.80
2019-01-23T19:52:45.356Z,-3.80
2019-01-23T19:55:15.871Z,-3.90
2019-01-23T19:57:44.277Z,-3.80
2019-01-23T20:00:17.541Z,-3.90
2019-01-23T20:02:47.078Z,-3.90
2019-01-23T20:05:19.452Z,-3.90
2019-01-23T20:07:47.734Z,-4.00
2019-01-23T20:10:18.253Z,-4.00
2019-01-23T20:12:46.772Z,-4.00
2019-01-23T20:15:17.168Z,-4.10
2019-01-23T20:17:45.269Z,-3.80
2019-01-23T20:20:14.321Z,-4.00
2019-01-23T20:22:43.123Z,-4.10
2019-01-23T20:25:18.955Z,-4.20
2019-01-23T20:27:47.156Z,-4.30
2019-01-23T20:30:33.174Z,-4.40
2019-01-23T20:33:01.354Z,-4.40
2019-01-23T20:35:29.692Z,-4.50
2019-01-23T20:37:58.767Z,-4.50
2019-01-23T20:40:27.072Z,-4.60
2019-01-23T20:42:55.226Z,-4.60
2019-01-23T20:45:23.515Z,-4.60
2019-01-23T20:47:51.599Z,-4.70
2019-01-23T20:50:23.312Z,-4.70
2019-01-23T20:52:51.457Z,-4.70
2019-01-23T20:55:19.731Z,-4.50
2019-01-23T20:57:47.953Z,-4.40
2019-01-23T21:00:22.610Z,-4.20
2019-01-23T21:02:50.640Z,-4.10
2019-01-23T21:05:18.742Z,-4.10
2019-01-23T21:07:47.065Z,-4.20
2019-01-23T21:10:16.580Z,-4.20
2019-01-23T21:12:44.615Z,-4.30
2019-01-23T21:15:37.774Z,-4.30
2019-01-23T21:18:06.464Z,-4.30
2019-01-23T21:20:38.288Z,-4.30
2019-01-23T21:23:08.143Z,-4.20
2019-01-23T21:25:36.359Z,-4.20
2019-01-23T21:28:05.091Z,-4.20
2019-01-23T21:30:33.148Z,-4.20
2019-01-23T21:33:01.185Z,-4.20
2019-01-23T21:35:29.704Z,-3.80
2019-01-23T21:37:58.350Z,-3.90
2019-01-23T21:40:31.933Z,-4.00
2019-01-23T21:43:02.718Z,-4.10
2019-01-23T21:45:36.488Z,-4.00
2019-01-23T21:48:06.096Z,-4.00
2019-01-23T21:50:34.336Z,-4.10
2019-01-23T21:53:02.812Z,-4.10
2019-01-23T21:55:30.938Z,-4.00
2019-01-23T21:57:59.058Z,-4.10
2019-01-23T22:00:37.150Z,-3.90
2019-01-23T22:03:06.974Z,-4.00
2019-01-23T22:05:35.153Z,-4.00
2019-01-23T22:08:03.984Z,-4.00
2019-01-23T22:10:32.212Z,-3.90
2019-01-23T22:13:00.591Z,-3.90
2019-01-23T22:15:28.921Z,-4.00
2019-01-23T22:17:56.993Z,-4.00
2019-01-23T22:20:26.165Z,-4.10
2019-01-23T22:22:54.508Z,-4.10
2019-01-23T22:25:24.179Z,-3.90
2019-01-23T22:27:55.515Z,-3.30
2019-01-23T22:30:28.569Z,-2.70
2019-01-23T22:32:57.713Z,-2.70
2019-01-23T22:35:26.249Z,-2.60
2019-01-23T22:37:54.365Z,-2.60
2019-01-23T22:40:22.599Z,-2.80
2019-01-23T22:42:50.748Z,-3.20
2019-01-23T22:45:20.086Z,-3.50
2019-01-23T22:47:49.285Z,-3.60
2019-01-23T22:50:28.493Z,-3.60
2019-01-23T22:52:56.705Z,-3.70
2019-01-23T22:55:25.451Z,-3.80
2019-01-23T22:57:53.537Z,-3.80
2019-01-23T23:01:21.604Z,-3.80
2019-01-23T23:03:49.812Z,-3.90
2019-01-23T23:06:18.072Z,-4.00
2019-01-23T23:08:46.178Z,-4.10
2019-01-23T23:11:14.223Z,-4.20
2019-01-23T23:13:42.591Z,-4.10
2019-01-23T23:16:10.743Z,-4.10
2019-01-23T23:18:38.785Z,-4.10
2019-01-23T23:21:06.923Z,-4.20
2019-01-23T23:23:34.919Z,-4.20
2019-01-23T23:26:03.647Z,-4.20
2019-01-23T23:28:31.744Z,-4.20
2019-01-23T23:31:00.446Z,-4.30
2019-01-23T23:33:28.629Z,-4.30
2019-01-23T23:35:56.733Z,-4.30
2019-01-23T23:38:24.757Z,-4.30
2019-01-23T23:40:52.769Z,-4.30
2019-01-23T23:43:21.131Z,-4.20
2019-01-23T23:45:49.244Z,-4.20
2019-01-23T23:48:17.277Z,-4.30
2019-01-23T23:50:45.512Z,-4.30
2019-01-23T23:53:13.665Z,-4.30
2019-01-23T23:55:41.711Z,-4.30
2019-01-23T23:58:09.909Z,-4.30
